ADDS TAF Board (Experimental) INFO Settings
IDs: Format: Expanded Condensed

KLGA - New York/La Guardia, NY, US

Issued at 2336 UTC 23 Aug 2016
Updated at 0130 UTC 24 Aug 2016
Time0051Z 24/02Z 24/03Z 24/04Z 24/05Z 24/06Z 24/07Z 24/08Z 24/09Z 24/10Z 24/11Z 24/12Z 24/13Z 24/14Z
Type OBS PRVL PRVL PRVL PRVL PRVL PRVL PRVL PRVL PRVL PRVL PRVL PRVL PRVL
VIS 10 >6 >6 >6 >6 >6 >6 >6 >6 >6 >6 >6 >6 >6
CIG -- -- -- -- -- -- -- -- -- -- -- -- -- --
Cover CLR SKC SKC SKC SKC SKC SKC SKC SKC SKC SKC SKC SKC SKC
FltCat VFR VFR VFR VFR VFR VFR VFR VFR VFR VFR VFR VFR VFR VFR
WX -- -- -- -- -- -- -- -- -- -- -- -- -- --
WDir 180 VRB VRB VRB VRB VRB VRB VRB VRB VRB VRB VRB VRB VRB
WSpd 7 5 5 5 5 5 5 5 5 5 5 5 5 5
WGst -- -- -- -- -- -- -- -- -- -- -- -- -- --
R04/22
XWnd -4 VRB VRB VRB VRB VRB VRB VRB VRB VRB VRB VRB VRB VRB
HWnd -6 VRB VRB VRB VRB VRB VRB VRB VRB VRB VRB VRB VRB VRB
R13/31
XWnd -6 VRB VRB VRB VRB VRB VRB VRB VRB VRB VRB VRB VRB VRB
HWnd 4 VRB VRB VRB VRB VRB VRB VRB VRB VRB VRB VRB VRB VRB

Raw TAF
KLGA 232336Z 2400/2424 17009KT P6SM FEW070
  FM240200 VRB05KT P6SM SKC
  FM241700 19009KT P6SM SKC


Raw METAR
KLGA 240051Z 18007KT 10SM CLR 25/16 A3024 RMK AO2 SLP241 T02500156 $
KLGA 232351Z 17011KT 10SM FEW070 FEW250 26/14 A3023 RMK AO2 SLP237 T02560139 10289 20256 $
KLGA 232251Z 12010KT 10SM FEW070 FEW250 27/13 A3023 RMK AO2 SLP235 T02670133 $

METAR Board
Radar Display
Forecast Discussion

TAF Board Legend

Potential Impact
Threat None Slight Moderate High
Visibility (sm) ≥5.1 5.1>X≥3 3>X≥1 <1
Ceiling (100 ft) ≥30.1 30.1>X≥10 10>X≥5 <5
Wind Speed (kt) <10 10≤X<20 20≤X<30 ≥30
Wind Gust (kt) <15 15≤X<25 25≤X<35 ≥35
Weather No Wx Reported VCTS,-TS,-FZRA,SN TS,FZRA +TS,+FZRA,+SN